createdAt,value
2023-05-11T00:01:30.435Z,12.19
2023-05-11T00:11:00.949Z,12.10
2023-05-11T00:15:02.493Z,12.10
2023-05-11T00:18:05.066Z,12.08
2023-05-11T00:21:13.082Z,12.08
2023-05-11T00:27:52.381Z,12.07
2023-05-11T00:34:51.165Z,12.03
2023-05-11T00:38:15.379Z,11.98
2023-05-11T00:41:44.870Z,11.97
2023-05-11T00:48:53.399Z,11.96
2023-05-11T00:52:29.251Z,11.96
2023-05-11T00:59:51.638Z,11.93
2023-05-11T01:07:13.537Z,11.94
2023-05-11T01:13:55.175Z,11.96
2023-05-11T01:24:44.920Z,11.99
2023-05-11T01:28:28.790Z,11.99
2023-05-11T01:31:45.120Z,12.02
2023-05-11T01:34:32.121Z,11.99
2023-05-11T01:38:25.407Z,11.99
2023-05-11T01:41:41.684Z,11.96
2023-05-11T01:45:23.918Z,12.01
2023-05-11T01:52:01.119Z,12.00
2023-05-11T02:14:26.711Z,12.00
2023-05-11T02:18:20.333Z,11.97
2023-05-11T02:25:18.984Z,11.99
2023-05-11T02:32:38.686Z,12.01
2023-05-11T02:36:28.379Z,12.01
2023-05-11T02:44:04.352Z,11.96
2023-05-11T02:55:36.676Z,12.00
2023-05-11T02:59:04.118Z,11.96
2023-05-11T03:02:29.580Z,11.96
2023-05-11T03:05:38.235Z,11.94
2023-05-11T03:09:10.192Z,11.97
2023-05-11T03:12:50.440Z,11.96
2023-05-11T03:16:17.926Z,11.94
2023-05-11T03:19:51.085Z,11.91
2023-05-11T03:32:59.410Z,11.78
2023-05-11T03:54:54.613Z,11.83
2023-05-11T03:57:26.123Z,11.86
2023-05-11T03:59:54.208Z,11.87
2023-05-11T04:02:24.724Z,11.90
2023-05-11T04:04:53.520Z,11.92
2023-05-11T04:07:21.738Z,11.94
2023-05-11T04:09:49.905Z,11.89
2023-05-11T04:12:19.748Z,11.96
2023-05-11T04:14:48.007Z,12.01
2023-05-11T04:17:16.135Z,11.95
2023-05-11T04:19:45.952Z,12.05
2023-05-11T04:22:14.273Z,12.09
2023-05-11T04:24:42.458Z,12.00
2023-05-11T04:27:10.751Z,12.07
2023-05-11T04:29:40.314Z,12.13
2023-05-11T04:32:08.428Z,12.13
2023-05-11T04:34:36.875Z,12.15
2023-05-11T04:37:07.520Z,12.12
2023-05-11T04:39:37.512Z,12.22
2023-05-11T04:42:05.991Z,12.26
2023-05-11T04:44:34.449Z,12.26
2023-05-11T04:47:04.080Z,12.26
2023-05-11T04:49:32.990Z,12.29
2023-05-11T04:52:01.223Z,12.29
2023-05-11T04:54:31.230Z,12.35
2023-05-11T04:56:59.344Z,12.35
2023-05-11T04:59:27.539Z,12.43
2023-05-11T05:01:55.754Z,12.45
2023-05-11T05:04:26.837Z,12.39
2023-05-11T05:06:55.088Z,12.45
2023-05-11T05:09:23.407Z,12.41
2023-05-11T05:11:51.574Z,12.51
2023-05-11T05:14:20.266Z,12.43
2023-05-11T05:16:48.431Z,12.49
2023-05-11T05:19:16.808Z,12.57
2023-05-11T05:21:48.347Z,12.55
2023-05-11T05:24:16.618Z,12.59
2023-05-11T05:26:45.002Z,12.63
2023-05-11T05:29:14.337Z,12.62
2023-05-11T05:31:42.696Z,12.70
2023-05-11T05:34:12.190Z,12.66
2023-05-11T05:36:41.342Z,12.74
2023-05-11T05:39:12.191Z,12.74
2023-05-11T05:41:42.172Z,12.75
2023-05-11T05:44:11.170Z,12.76
2023-05-11T05:46:40.348Z,12.78
2023-05-11T05:49:08.599Z,12.76
2023-05-11T05:51:38.609Z,12.80
2023-05-11T05:54:06.971Z,12.81
2023-05-11T05:56:36.656Z,12.94
2023-05-11T05:59:07.499Z,12.88
2023-05-11T06:01:37.532Z,12.86
2023-05-11T06:04:06.528Z,12.79
2023-05-11T06:06:34.939Z,12.77
2023-05-11T06:09:03.103Z,12.81
2023-05-11T06:11:31.289Z,12.83
2023-05-11T06:14:01.143Z,12.86
2023-05-11T06:16:29.526Z,12.82
2023-05-11T06:18:57.799Z,12.83
2023-05-11T06:21:26.854Z,12.86
2023-05-11T06:23:55.345Z,12.93
2023-05-11T06:26:25.372Z,12.93
2023-05-11T06:28:54.603Z,12.93
2023-05-11T06:31:24.626Z,12.87
2023-05-11T06:33:53.694Z,13.01
2023-05-11T06:36:26.045Z,12.93
2023-05-11T06:38:54.239Z,12.94
2023-05-11T06:41:22.999Z,13.01
2023-05-11T06:43:51.734Z,12.97
2023-05-11T06:46:24.310Z,12.99
2023-05-11T06:48:52.602Z,12.95
2023-05-11T06:51:21.843Z,13.01
2023-05-11T06:53:50.215Z,12.97
2023-05-11T06:56:18.345Z,12.95
2023-05-11T06:58:46.474Z,12.90
2023-05-11T07:01:15.082Z,13.01
2023-05-11T07:03:44.733Z,12.89
2023-05-11T07:06:12.895Z,12.90
2023-05-11T07:08:41.042Z,12.86
2023-05-11T07:11:09.263Z,12.90
2023-05-11T07:13:37.470Z,12.89
2023-05-11T07:16:06.002Z,13.02
2023-05-11T07:18:34.084Z,13.03
2023-05-11T07:21:03.669Z,12.99
2023-05-11T07:23:31.777Z,12.98
2023-05-11T07:25:59.907Z,12.98
2023-05-11T07:28:28.053Z,12.96
2023-05-11T07:30:56.262Z,12.89
2023-05-11T07:33:24.344Z,12.89
2023-05-11T07:35:52.971Z,12.86
2023-05-11T07:38:22.702Z,12.94
2023-05-11T07:40:51.222Z,12.95
2023-05-11T07:43:19.381Z,12.95
2023-05-11T07:45:47.567Z,12.96
2023-05-11T07:48:15.702Z,12.96
2023-05-11T07:50:43.817Z,12.97
2023-05-11T07:53:12.015Z,13.00
2023-05-11T07:55:41.614Z,12.99
2023-05-11T07:58:09.778Z,12.98
2023-05-11T08:00:37.832Z,13.00
2023-05-11T08:03:06.534Z,12.96
2023-05-11T08:05:37.614Z,12.92
2023-05-11T08:08:06.268Z,12.95
2023-05-11T08:10:34.491Z,12.96
2023-05-11T08:13:03.980Z,12.80
2023-05-11T08:15:32.395Z,12.77
2023-05-11T08:18:01.663Z,12.69
2023-05-11T08:20:30.504Z,12.73
2023-05-11T08:22:59.029Z,12.70
2023-05-11T08:25:27.099Z,12.68
2023-05-11T08:27:55.319Z,12.67
2023-05-11T08:30:24.808Z,12.56
2023-05-11T08:32:58.642Z,12.52
2023-05-11T08:35:27.603Z,12.48
2023-05-11T08:37:55.715Z,12.42
2023-05-11T08:40:27.974Z,12.32
2023-05-11T08:42:57.364Z,12.36
2023-05-11T08:45:27.676Z,12.46
2023-05-11T08:47:56.406Z,12.47
2023-05-11T08:50:24.687Z,12.48
2023-05-11T08:52:52.867Z,12.54
2023-05-11T08:55:21.829Z,12.55
2023-05-11T08:57:52.581Z,12.47
2023-05-11T09:00:23.238Z,12.56
2023-05-11T09:02:53.678Z,12.58
2023-05-11T09:05:22.287Z,12.52
2023-05-11T09:07:53.885Z,12.46
2023-05-11T09:10:22.042Z,12.38
2023-05-11T09:12:50.144Z,12.43
2023-05-11T09:15:18.385Z,12.41
2023-05-11T09:17:46.694Z,12.40
2023-05-11T09:20:17.103Z,12.33
2023-05-11T09:22:47.143Z,12.36
2023-05-11T09:25:17.142Z,12.37
2023-05-11T09:27:46.388Z,12.43
2023-05-11T09:32:50.891Z,12.37
2023-05-11T09:35:25.682Z,12.37
2023-05-11T09:38:02.469Z,12.32
2023-05-11T09:40:34.304Z,12.33
2023-05-11T09:43:03.673Z,12.28
2023-05-11T09:45:42.829Z,12.33
2023-05-11T09:48:26.262Z,12.32
2023-05-11T09:51:01.609Z,12.27
2023-05-11T09:53:43.453Z,12.22
2023-05-11T09:56:12.001Z,12.22
2023-05-11T09:58:48.397Z,12.22
2023-05-11T10:01:17.347Z,12.10
2023-05-11T10:04:02.690Z,12.04
2023-05-11T10:06:49.729Z,11.97
2023-05-11T10:09:19.745Z,11.99
2023-05-11T10:11:48.218Z,11.89
2023-05-11T10:14:17.036Z,11.79
2023-05-11T10:16:47.394Z,11.73
2023-05-11T10:19:16.218Z,11.66
2023-05-11T10:21:45.235Z,11.73
2023-05-11T10:24:16.689Z,11.83
2023-05-11T10:26:46.522Z,11.94
2023-05-11T10:29:15.091Z,11.95
2023-05-11T10:31:43.771Z,11.76
2023-05-11T10:34:13.146Z,11.87
2023-05-11T10:36:41.567Z,11.92
2023-05-11T10:39:09.713Z,11.92
2023-05-11T10:41:50.660Z,11.96
2023-05-11T10:44:39.505Z,11.90
2023-05-11T10:47:32.530Z,11.81
2023-05-11T10:50:35.208Z,11.80
2023-05-11T10:53:17.459Z,11.80
2023-05-11T10:55:57.784Z,11.55
2023-05-11T10:58:37.597Z,11.54
2023-05-11T11:01:39.615Z,11.67
2023-05-11T11:04:09.654Z,11.78
2023-05-11T11:06:39.829Z,11.93
2023-05-11T11:09:12.873Z,11.84
2023-05-11T11:11:42.794Z,11.93
2023-05-11T11:14:13.006Z,11.88
2023-05-11T11:16:42.111Z,11.80
2023-05-11T11:19:39.705Z,11.75
2023-05-11T11:22:28.149Z,11.89
2023-05-11T11:24:56.379Z,11.71
2023-05-11T11:27:59.515Z,11.79
2023-05-11T11:30:30.893Z,11.86
2023-05-11T11:33:33.011Z,12.07
2023-05-11T11:36:01.784Z,12.12
2023-05-11T11:38:32.654Z,12.11
2023-05-11T11:41:00.972Z,11.96
2023-05-11T11:43:44.846Z,11.87
2023-05-11T11:46:27.285Z,12.09
2023-05-11T11:49:08.355Z,12.09
2023-05-11T11:51:40.438Z,12.10
2023-05-11T11:54:09.719Z,12.08
2023-05-11T11:56:40.378Z,12.16
2023-05-11T11:59:12.115Z,12.27
2023-05-11T12:01:43.079Z,12.16
2023-05-11T12:04:40.887Z,12.28
2023-05-11T12:07:11.559Z,12.20
2023-05-11T12:09:41.615Z,12.20
2023-05-11T12:12:11.478Z,12.15
2023-05-11T12:14:44.801Z,12.32
2023-05-11T12:17:17.562Z,12.41
2023-05-11T12:19:46.719Z,12.37
2023-05-11T12:22:16.525Z,12.43
2023-05-11T12:24:45.094Z,12.52
2023-05-11T12:27:13.445Z,12.55
2023-05-11T12:29:41.797Z,12.63
2023-05-11T12:32:15.175Z,12.72
2023-05-11T12:34:43.456Z,12.74
2023-05-11T12:37:11.819Z,12.52
2023-05-11T12:39:40.661Z,12.43
2023-05-11T12:42:09.155Z,12.52
2023-05-11T12:44:37.633Z,12.59
2023-05-11T12:47:06.414Z,12.57
2023-05-11T12:49:35.988Z,12.62
2023-05-11T12:52:09.216Z,12.56
2023-05-11T12:54:39.382Z,12.56
2023-05-11T12:57:09.912Z,12.52
2023-05-11T12:59:40.091Z,12.59
2023-05-11T13:02:10.564Z,12.44
2023-05-11T13:04:41.956Z,12.44
2023-05-11T13:07:10.942Z,12.44
2023-05-11T13:09:39.738Z,12.47
2023-05-11T13:12:12.237Z,12.45
2023-05-11T13:14:40.704Z,12.46
2023-05-11T13:17:08.901Z,12.50
2023-05-11T13:19:37.788Z,12.55
2023-05-11T13:22:08.266Z,12.50
2023-05-11T13:24:36.581Z,12.52
2023-05-11T13:27:04.939Z,12.48
2023-05-11T13:29:33.348Z,12.41
2023-05-11T13:32:01.552Z,12.53
2023-05-11T13:34:29.714Z,12.49
2023-05-11T13:36:58.180Z,12.41
2023-05-11T13:39:27.766Z,12.34
2023-05-11T13:41:56.761Z,12.30
2023-05-11T13:44:25.265Z,12.37
2023-05-11T13:46:53.470Z,12.27
2023-05-11T13:49:21.797Z,12.25
2023-05-11T13:51:49.918Z,12.24
2023-05-11T13:54:18.073Z,12.20
2023-05-11T13:56:47.705Z,12.28
2023-05-11T13:59:15.948Z,12.27
2023-05-11T14:01:44.378Z,12.36
2023-05-11T14:04:12.697Z,12.22
2023-05-11T14:06:42.028Z,12.15
2023-05-11T14:09:10.376Z,12.18
2023-05-11T14:11:39.587Z,12.08
2023-05-11T14:14:09.379Z,12.14
2023-05-11T14:16:37.595Z,12.04
2023-05-11T14:19:06.011Z,11.94
2023-05-11T14:21:34.335Z,11.93
2023-05-11T14:24:12.276Z,12.01
2023-05-11T14:26:41.200Z,11.95
2023-05-11T14:29:10.660Z,11.91
2023-05-11T14:31:39.332Z,11.96
2023-05-11T14:34:07.671Z,11.97
2023-05-11T14:36:35.861Z,12.00
2023-05-11T14:39:04.096Z,11.96
2023-05-11T14:41:32.262Z,11.98
2023-05-11T14:44:00.445Z,11.98
2023-05-11T14:46:30.046Z,11.93
2023-05-11T14:48:58.382Z,11.93
2023-05-11T14:51:26.512Z,11.87
2023-05-11T14:53:54.647Z,11.90
2023-05-11T14:56:23.507Z,11.91
2023-05-11T14:58:51.719Z,11.89
2023-05-11T15:01:19.938Z,11.92
2023-05-11T15:03:49.517Z,11.98
2023-05-11T15:06:21.597Z,11.99
2023-05-11T15:08:50.481Z,12.10
2023-05-11T15:11:18.737Z,12.07
2023-05-11T15:13:48.553Z,12.10
2023-05-11T15:16:16.779Z,12.00
2023-05-11T15:18:45.035Z,11.91
2023-05-11T15:21:14.590Z,11.97
2023-05-11T15:23:42.686Z,11.94
2023-05-11T15:26:10.864Z,11.99
2023-05-11T15:28:39.023Z,11.92
2023-05-11T15:31:07.183Z,11.81
2023-05-11T15:33:35.362Z,11.80
2023-05-11T15:36:03.570Z,11.88
2023-05-11T15:38:33.057Z,11.92
2023-05-11T15:41:01.244Z,11.85
2023-05-11T15:43:29.389Z,11.85
2023-05-11T15:45:57.630Z,11.84
2023-05-11T15:48:26.002Z,11.82
2023-05-11T15:50:54.178Z,11.88
2023-05-11T15:53:22.323Z,11.87
2023-05-11T15:55:55.540Z,11.90
2023-05-11T15:58:24.434Z,11.85
2023-05-11T16:00:52.701Z,11.92
2023-05-11T16:03:21.151Z,11.89
2023-05-11T16:05:49.446Z,11.82
2023-05-11T16:08:17.637Z,11.86
2023-05-11T16:10:45.890Z,11.84
2023-05-11T16:13:15.438Z,11.89
2023-05-11T16:15:43.667Z,11.86
2023-05-11T16:18:11.881Z,11.89
2023-05-11T16:20:40.087Z,11.84
2023-05-11T16:23:08.259Z,11.72
2023-05-11T16:25:36.348Z,11.66
2023-05-11T16:28:04.880Z,11.70
2023-05-11T16:30:34.438Z,11.79
2023-05-11T16:33:02.570Z,11.75
2023-05-11T16:35:30.872Z,11.76
2023-05-11T16:38:00.544Z,11.78
2023-05-11T16:40:28.673Z,11.77
2023-05-11T16:42:56.923Z,11.71
2023-05-11T16:45:25.085Z,11.69
2023-05-11T16:47:54.612Z,11.60
2023-05-11T16:50:23.199Z,11.65
2023-05-11T16:52:51.459Z,11.69
2023-05-11T16:55:20.022Z,11.67
2023-05-11T16:57:48.439Z,11.60
2023-05-11T17:00:17.375Z,11.63
2023-05-11T17:02:46.359Z,11.61
2023-05-11T17:05:18.086Z,11.63
2023-05-11T17:07:46.863Z,11.63
2023-05-11T17:10:15.086Z,11.56
2023-05-11T17:12:43.280Z,11.51
2023-05-11T17:15:11.901Z,11.45
2023-05-11T17:17:41.307Z,11.49
2023-05-11T17:20:10.754Z,11.48
2023-05-11T17:22:40.309Z,11.48
2023-05-11T17:25:09.116Z,11.43
2023-05-11T17:27:37.700Z,11.46
2023-05-11T17:30:07.493Z,11.41
2023-05-11T17:32:36.584Z,11.48
2023-05-11T17:35:07.852Z,11.47
2023-05-11T17:37:36.156Z,11.45
2023-05-11T17:40:07.449Z,11.43
2023-05-11T17:42:35.606Z,11.42
2023-05-11T17:45:03.846Z,11.35
2023-05-11T17:47:32.407Z,11.39
2023-05-11T17:50:00.611Z,11.37
2023-05-11T17:52:28.749Z,11.37
2023-05-11T17:54:56.900Z,11.35
2023-05-11T17:57:26.686Z,11.31
2023-05-11T17:59:54.776Z,11.26
2023-05-11T18:02:23.144Z,11.27
2023-05-11T18:04:51.435Z,11.27
2023-05-11T18:07:19.739Z,11.28
2023-05-11T18:09:47.917Z,11.25
2023-05-11T18:12:16.242Z,11.25
2023-05-11T18:14:45.696Z,11.26
2023-05-11T18:17:14.393Z,11.21
2023-05-11T18:19:42.939Z,11.17
2023-05-11T18:22:11.384Z,11.16
2023-05-11T18:24:39.632Z,11.20
2023-05-11T18:27:07.695Z,11.17
2023-05-11T18:29:40.441Z,11.23
2023-05-11T18:32:10.320Z,11.12
2023-05-11T18:34:41.317Z,11.07
2023-05-11T18:37:10.077Z,10.99
2023-05-11T18:39:39.074Z,10.90
2023-05-11T18:42:07.901Z,10.95
2023-05-11T18:44:36.121Z,10.93
2023-05-11T18:47:04.920Z,10.86
2023-05-11T18:49:34.587Z,10.94
2023-05-11T18:52:04.050Z,10.90
2023-05-11T18:54:32.679Z,10.87
2023-05-11T18:57:01.210Z,10.80
2023-05-11T18:59:29.441Z,10.89
2023-05-11T19:01:57.735Z,10.87
2023-05-11T19:04:27.400Z,10.77
2023-05-11T19:06:57.659Z,10.72
2023-05-11T19:09:28.176Z,10.66
2023-05-11T19:11:57.321Z,10.68
2023-05-11T19:14:25.764Z,10.64
2023-05-11T19:16:54.017Z,10.69
2023-05-11T19:19:22.440Z,10.67
2023-05-11T19:21:50.777Z,10.69
2023-05-11T19:24:20.772Z,10.64
2023-05-11T19:26:58.875Z,10.67
2023-05-11T19:29:35.175Z,10.61
2023-05-11T19:32:04.576Z,10.51
2023-05-11T19:34:33.657Z,10.59
2023-05-11T19:37:02.218Z,10.56
2023-05-11T19:39:32.075Z,10.52
2023-05-11T19:42:00.626Z,10.50
2023-05-11T19:44:32.837Z,10.51
2023-05-11T19:47:01.938Z,10.48
2023-05-11T19:49:30.434Z,10.47
2023-05-11T19:51:59.073Z,10.47
2023-05-11T19:54:27.207Z,10.48
2023-05-11T19:56:57.772Z,10.48
2023-05-11T19:59:32.623Z,10.47
2023-05-11T20:02:01.270Z,10.43
2023-05-11T20:04:29.977Z,10.39
2023-05-11T20:06:59.154Z,10.40
2023-05-11T20:09:27.265Z,10.42
2023-05-11T20:11:56.862Z,10.45
2023-05-11T20:14:29.571Z,10.40
2023-05-11T20:17:39.043Z,10.38
2023-05-11T20:21:15.426Z,10.37
2023-05-11T20:24:16.720Z,10.38
2023-05-11T20:27:50.356Z,10.31
2023-05-11T20:31:11.168Z,10.32
2023-05-11T20:41:14.816Z,10.23
2023-05-11T20:44:13.902Z,10.21
2023-05-11T20:47:44.682Z,10.07
2023-05-11T20:50:57.429Z,10.07
2023-05-11T20:53:48.790Z,10.06
2023-05-11T20:57:14.471Z,10.06
2023-05-11T21:01:35.036Z,10.09
2023-05-11T21:05:20.669Z,10.14
2023-05-11T21:15:47.110Z,10.12
2023-05-11T21:30:22.037Z,10.09
2023-05-11T21:34:32.263Z,10.01
2023-05-11T21:38:02.291Z,10.06
2023-05-11T21:45:39.532Z,9.94
2023-05-11T21:48:59.686Z,9.96
2023-05-11T21:52:13.628Z,9.86
2023-05-11T21:59:34.017Z,9.92
2023-05-11T22:17:08.112Z,9.86
2023-05-11T22:20:44.933Z,9.89
2023-05-11T22:24:17.296Z,9.94
2023-05-11T22:27:36.210Z,10.04
2023-05-11T22:30:53.074Z,9.93
2023-05-11T22:34:27.716Z,10.01
2023-05-11T22:38:09.809Z,10.03
2023-05-11T22:45:18.657Z,10.01
2023-05-11T22:48:35.201Z,10.04
2023-05-11T22:52:04.680Z,10.04
2023-05-11T23:06:13.051Z,10.14
2023-05-11T23:10:07.322Z,10.00
2023-05-11T23:13:50.261Z,10.08
2023-05-11T23:24:44.419Z,9.95
2023-05-11T23:27:59.048Z,10.03
2023-05-11T23:42:38.244Z,9.97
2023-05-11T23:46:30.330Z,10.02
2023-05-11T23:49:53.254Z,10.02
2023-05-11T23:53:47.626Z,10.05
